Time;durP1;ratioP1;P1;durP2;ratioP2;P2;SDS_P1;SDS_P2;PMS_P1;PMS_P2;Temp;Humidity;BMP_temperature;BMP_pressure;BME280_temperature;BME280_humidity;BME280_pressure;Samples;Min_cycle;Max_cycle;Signal;HPM_P1;HPM_P2
2023/05/22 00:03:02;;;;;;;6.00;2.67;;;25.20;59.40;;;;;;10533817;28;20476;-25
2023/05/22 00:08:04;;;;;;;5.88;2.40;;;25.00;59.30;;;;;;10527577;28;20119;-24
2023/05/22 00:13:08;;;;;;;7.72;2.90;;;25.00;59.50;;;;;;10527672;28;20071;-26
2023/05/22 00:18:09;;;;;;;5.35;2.30;;;25.10;59.10;;;;;;10531616;28;20137;-25
2023/05/22 00:23:11;;;;;;;;;;;25.10;59.30;;;;;;10532562;28;20052;-25
2023/05/22 00:28:14;;;;;;;5.70;2.55;;;24.70;60.00;;;;;;10530018;28;20007;-23
2023/05/22 00:33:16;;;;;;;6.68;2.60;;;25.00;59.10;;;;;;10520972;28;20139;-24
2023/05/22 00:38:28;;;;;;;;;;;24.90;59.50;;;;;;10525094;28;20120;-24
2023/05/22 00:43:31;;;;;;;6.07;2.38;;;24.90;59.60;;;;;;10528822;28;19920;-24
2023/05/22 00:48:33;;;;;;;4.40;2.13;;;24.60;59.90;;;;;;10516986;28;20533;-25
2023/05/22 00:53:35;;;;;;;7.93;2.42;;;24.80;59.70;;;;;;10531608;28;20135;-24
2023/05/22 00:58:39;;;;;;;5.40;2.10;;;24.70;59.60;;;;;;10530944;28;20044;-25
2023/05/22 01:03:43;;;;;;;4.88;2.22;;;24.50;59.90;;;;;;10526986;28;20052;-24
2023/05/22 01:08:45;;;;;;;4.78;2.47;;;24.70;59.20;;;;;;10530221;28;20184;-25
2023/05/22 01:13:53;;;;;;;;;;;24.70;59.70;;;;;;10532595;28;20050;-24
2023/05/22 01:19:01;;;;;;;4.93;2.33;;;24.70;59.90;;;;;;10531869;28;21205;-25
2023/05/22 01:24:40;;;;;;;5.78;2.50;;;24.70;59.20;;;;;;10530503;28;20127;-24
2023/05/22 01:29:48;;;;;;;3.50;1.95;;;24.60;59.70;;;;;;10529301;28;20798;-24
2023/05/22 01:34:55;;;;;;;5.00;2.05;;;24.60;59.90;;;;;;10525747;28;20055;-24
2023/05/22 01:39:57;;;;;;;10.68;3.22;;;24.60;59.90;;;;;;10521484;28;20140;-25
2023/05/22 01:44:59;;;;;;;6.25;1.92;;;24.40;60.20;;;;;;10531615;28;20067;-25
2023/05/22 01:50:03;;;;;;;5.30;2.53;;;24.50;60.20;;;;;;10519702;28;20074;-24
2023/05/22 01:55:12;;;;;;;9.00;2.90;;;24.10;61.20;;;;;;10524027;28;20455;-25
2023/05/22 02:00:15;;;;;;;5.82;1.85;;;23.90;60.10;;;;;;10523513;28;20051;-24
2023/05/22 02:05:21;;;;;;;5.57;2.50;;;24.20;60.30;;;;;;10528251;28;20080;-25
2023/05/22 02:10:23;;;;;;;8.55;2.58;;;24.30;60.20;;;;;;10524200;28;20052;-24
2023/05/22 02:15:25;;;;;;;5.38;1.92;;;24.30;60.30;;;;;;10522704;28;20079;-24
2023/05/22 02:20:29;;;;;;;7.95;2.40;;;24.00;61.40;;;;;;10526418;28;20137;-24
2023/05/22 02:25:31;;;;;;;3.22;2.40;;;23.90;61.10;;;;;;10525766;28;20040;-25
2023/05/22 02:30:33;;;;;;;;;;;23.70;62.20;;;;;;10527001;28;20080;-25
2023/05/22 02:35:36;;;;;;;5.20;2.10;;;23.00;63.10;;;;;;10531280;28;20027;-24
2023/05/22 02:40:38;;;;;;;5.38;2.30;;;22.80;66.10;;;;;;10527738;28;20135;-24
2023/05/22 02:45:39;;;;;;;;;;;23.70;62.20;;;;;;10523763;28;20075;-25
2023/05/22 02:50:43;;;;;;;10.90;3.03;;;23.90;61.00;;;;;;10526216;28;19977;-23
2023/05/22 02:55:45;;;;;;;13.63;2.88;;;23.20;63.90;;;;;;10529062;28;20495;-24
2023/05/22 03:15:29;;;;;;;15.35;4.20;;;23.20;63.20;;;;;;10553156;27;20109;-23
2023/05/22 03:20:31;;;;;;;7.50;2.58;;;22.30;67.60;;;;;;10564796;28;20392;-23
2023/05/22 03:25:33;;;;;;;6.07;2.45;;;23.20;63.80;;;;;;10560840;28;20553;-23
2023/05/22 03:30:36;;;;;;;7.55;2.35;;;23.50;61.70;;;;;;10562185;28;20164;-23
2023/05/22 03:35:38;;;;;;;8.07;2.22;;;22.40;66.70;;;;;;10556549;28;20128;-23
2023/05/22 03:40:40;;;;;;;9.02;2.53;;;23.10;63.90;;;;;;10566850;28;20471;-23
2023/05/22 03:45:43;;;;;;;8.77;3.35;;;23.40;62.30;;;;;;10567422;28;20075;-24
2023/05/22 03:50:45;;;;;;;7.13;2.97;;;23.10;63.00;;;;;;10567912;28;20404;-23
2023/05/22 03:55:47;;;;;;;;;;;22.90;63.80;;;;;;10552251;28;20072;-24
2023/05/22 04:00:51;;;;;;;9.33;2.83;;;23.20;63.20;;;;;;10553996;28;20703;-24
2023/05/22 04:05:53;;;;;;;21.85;5.35;;;23.40;62.40;;;;;;10561919;28;20048;-24
2023/05/22 04:10:55;;;;;;;5.93;2.40;;;22.30;65.90;;;;;;10557717;28;20430;-24
2023/05/22 04:15:58;;;;;;;;;;;23.10;64.00;;;;;;10557467;28;20044;-23
2023/05/22 04:21:00;;;;;;;7.00;3.13;;;21.80;66.90;;;;;;10547548;28;20001;-23
2023/05/22 04:26:01;;;;;;;;;;;20.70;76.00;;;;;;10537882;28;20488;-23
2023/05/22 04:31:06;;;;;;;6.83;2.40;;;21.10;73.10;;;;;;10543363;28;19927;-23
2023/05/22 04:36:09;;;;;;;7.30;2.70;;;22.10;69.80;;;;;;10521389;28;20439;-23
2023/05/22 04:41:12;;;;;;;7.18;2.83;;;22.40;67.40;;;;;;10532102;28;20047;-23
2023/05/22 04:46:15;;;;;;;5.90;2.83;;;22.90;64.20;;;;;;10521743;28;20565;-23
2023/05/22 04:51:17;;;;;;;17.75;5.45;;;22.80;65.80;;;;;;10533176;28;20565;-23
2023/05/22 04:56:20;;;;;;;11.30;3.20;;;22.80;64.80;;;;;;10537548;28;20047;-24
2023/05/22 05:01:23;;;;;;;11.38;3.58;;;21.30;71.20;;;;;;10520322;28;20050;-22
2023/05/22 05:06:26;;;;;;;6.22;2.97;;;22.10;69.00;;;;;;10524291;28;20139;-24
2023/05/22 05:11:27;;;;;;;10.82;3.00;;;22.40;67.20;;;;;;10526636;28;20063;-24
2023/05/22 05:16:31;;;;;;;8.45;3.03;;;22.40;67.40;;;;;;10541755;28;20075;-24
2023/05/22 05:21:33;;;;;;;7.47;2.88;;;22.50;65.80;;;;;;10524761;28;20048;-24
2023/05/22 05:26:34;;;;;;;;;;;23.00;64.20;;;;;;10515949;28;20097;-22
2023/05/22 05:31:37;;;;;;;7.63;2.67;;;23.00;64.60;;;;;;10529825;28;19920;-23
2023/05/22 05:36:40;;;;;;;8.82;3.15;;;23.30;62.90;;;;;;10519494;28;20044;-23
2023/05/22 05:41:42;;;;;;;16.77;5.50;;;23.20;63.30;;;;;;10518540;28;20164;-24
2023/05/22 05:46:45;;;;;;;;;;;22.30;65.40;;;;;;10526482;28;20044;-23
2023/05/22 05:51:47;;;;;;;7.72;3.08;;;22.50;66.20;;;;;;10508232;28;20010;-24
2023/05/22 05:56:49;;;;;;;7.47;3.72;;;22.90;64.50;;;;;;10523708;28;20052;-23
2023/05/22 06:01:52;;;;;;;;;;;23.00;64.20;;;;;;10527640;28;20059;-22
2023/05/22 06:06:53;;;;;;;9.73;3.38;;;22.90;63.80;;;;;;10516961;28;19924;-22
2023/05/22 06:11:55;;;;;;;;;;;23.20;63.20;;;;;;10529037;28;20147;-23
2023/05/22 06:16:58;;;;;;;11.43;3.20;;;23.40;62.30;;;;;;10531797;28;19920;-24
2023/05/22 06:22:00;;;;;;;9.05;3.28;;;22.70;64.70;;;;;;10534289;28;20884;-24
2023/05/22 06:27:02;;;;;;;;;;;23.10;63.50;;;;;;10531767;28;20127;-23
2023/05/22 06:32:06;;;;;;;8.80;2.93;;;23.00;64.10;;;;;;10532026;28;19920;-22
2023/05/22 06:37:07;;;;;;;7.95;3.50;;;22.80;64.70;;;;;;10520496;28;20036;-23
2023/05/22 06:42:09;;;;;;;10.00;3.25;;;22.60;65.10;;;;;;10528985;28;20095;-24
2023/05/22 06:47:12;;;;;;;6.82;3.75;;;23.40;62.50;;;;;;10519741;28;20045;-24
2023/05/22 06:52:14;;;;;;;8.82;3.58;;;23.40;62.10;;;;;;10518956;28;20139;-23
2023/05/22 06:57:16;;;;;;;9.25;3.78;;;23.10;62.90;;;;;;10523153;28;20536;-23
2023/05/22 07:02:19;;;;;;;7.88;3.42;;;23.30;62.50;;;;;;10537108;28;20503;-24
2023/05/22 07:07:21;;;;;;;8.98;3.17;;;23.40;62.20;;;;;;10524449;28;20079;-24
2023/05/22 07:12:25;;;;;;;;;;;23.40;62.50;;;;;;10536232;28;20143;-24
2023/05/22 07:17:28;;;;;;;9.23;3.35;;;23.50;62.40;;;;;;10521913;28;19919;-24
2023/05/22 07:22:30;;;;;;;8.23;3.30;;;23.60;61.70;;;;;;10527792;28;20746;-24
2023/05/22 07:27:32;;;;;;;6.90;3.03;;;23.80;61.20;;;;;;10519378;28;20477;-24
2023/05/22 07:32:35;;;;;;;20.15;7.15;;;23.00;64.90;;;;;;10521728;28;20130;-24
2023/05/22 07:37:37;;;;;;;9.05;4.28;;;23.40;63.20;;;;;;10524021;28;20044;-23
2023/05/22 07:42:39;;;;;;;19.23;7.68;;;23.00;65.10;;;;;;10525723;28;20495;-24
2023/05/22 07:47:42;;;;;;;14.02;4.93;;;22.90;65.50;;;;;;10516161;28;20140;-24
2023/05/22 07:52:44;;;;;;;24.92;8.65;;;23.20;64.30;;;;;;10523999;28;20142;-23
2023/05/22 07:57:46;;;;;;;;;;;22.30;68.10;;;;;;10520491;28;20546;-23
2023/05/22 08:02:49;;;;;;;12.43;5.10;;;22.00;69.40;;;;;;10542322;28;20287;-23
2023/05/22 08:07:51;;;;;;;12.40;4.30;;;21.90;72.30;;;;;;10539869;28;20590;-23
2023/05/22 08:12:53;;;;;;;14.23;4.10;;;22.80;67.20;;;;;;10530017;28;20084;-24
2023/05/22 08:17:56;;;;;;;27.30;8.60;;;23.10;65.10;;;;;;10534231;28;20097;-23
2023/05/22 08:22:58;;;;;;;10.23;4.63;;;22.50;66.50;;;;;;10539951;28;20457;-23
2023/05/22 08:28:00;;;;;;;11.93;4.50;;;23.30;64.40;;;;;;10533770;28;20530;-23
2023/05/22 08:33:03;;;;;;;7.75;4.05;;;23.50;63.40;;;;;;10532444;28;20684;-23
2023/05/22 08:38:05;;;;;;;10.05;4.78;;;23.90;62.10;;;;;;10537359;28;20135;-23
2023/05/22 08:43:07;;;;;;;;;;;23.80;62.40;;;;;;10548767;28;20048;-23
2023/05/22 08:48:13;;;;;;;11.15;4.57;;;23.20;65.30;;;;;;10529200;28;20345;-24
2023/05/22 08:53:16;;;;;;;33.78;9.68;;;21.80;73.30;;;;;;10520647;28;20142;-24
2023/05/22 08:58:19;;;;;;;14.40;5.80;;;20.70;81.20;;;;;;10534319;28;20054;-24
2023/05/22 09:03:22;;;;;;;24.30;8.55;;;21.30;78.30;;;;;;10531940;28;20048;-24
2023/05/22 09:08:24;;;;;;;27.27;10.98;;;22.40;71.70;;;;;;10536258;28;20582;-24
2023/05/22 09:13:28;;;;;;;23.33;9.63;;;20.70;83.20;;;;;;10530208;28;20056;-24
2023/05/22 09:18:32;;;;;;;16.00;6.65;;;21.10;85.10;;;;;;10536697;28;20096;-23
2023/05/22 09:23:33;;;;;;;13.82;6.10;;;20.80;85.50;;;;;;10532721;28;20044;-24
2023/05/22 09:28:37;;;;;;;17.45;7.18;;;21.50;80.70;;;;;;10547457;28;20131;-24
2023/05/22 09:33:43;;;;;;;26.67;8.23;;;21.00;85.90;;;;;;10529888;28;20048;-23
2023/05/22 09:38:45;;;;;;;30.05;8.20;;;20.80;82.30;;;;;;10514299;28;20137;-24
2023/05/22 09:43:50;;;;;;;25.52;8.55;;;21.20;82.50;;;;;;10530192;28;20048;-23
2023/05/22 09:48:54;;;;;;;19.40;5.70;;;21.50;77.20;;;;;;10532137;28;20063;-23
2023/05/22 09:54:05;;;;;;;25.10;6.70;;;22.30;74.80;;;;;;10532857;28;20080;-23
2023/05/22 09:59:08;;;;;;;23.33;7.43;;;21.20;79.40;;;;;;10525788;28;20047;-23
2023/05/22 10:04:13;;;;;;;12.60;5.47;;;20.60;87.20;;;;;;10526389;28;20203;-24
2023/05/22 10:09:17;;;;;;;22.73;5.97;;;21.50;81.20;;;;;;10530129;28;20048;-23
2023/05/22 10:14:19;;;;;;;22.25;6.65;;;20.80;84.70;;;;;;10520418;28;20160;-24
2023/05/22 10:19:25;;;;;;;;;;;21.10;84.70;;;;;;10530224;28;20082;-23
2023/05/22 10:24:28;;;;;;;12.10;5.10;;;21.60;81.40;;;;;;10523616;28;19924;-23
2023/05/22 10:29:38;;;;;;;13.43;5.15;;;22.10;78.00;;;;;;10527332;28;20117;-23
2023/05/22 10:34:50;;;;;;;14.38;4.97;;;21.10;87.00;;;;;;10529930;28;20492;-24
2023/05/22 10:40:00;;;;;;;16.80;5.85;;;22.80;73.30;;;;;;10528332;28;20055;-23
2023/05/22 10:45:04;;;;;;;14.70;5.20;;;21.00;86.40;;;;;;10525052;28;20073;-23
2023/05/22 10:50:10;;;;;;;24.63;8.00;;;22.60;75.10;;;;;;10528283;28;20128;-24
2023/05/22 10:55:12;;;;;;;15.73;6.30;;;21.00;85.80;;;;;;10527248;28;20044;-24
2023/05/22 11:00:18;;;;;;;22.90;7.68;;;21.70;83.00;;;;;;10525401;28;20070;-24
2023/05/22 11:05:36;;;;;;;18.73;6.65;;;21.40;81.20;;;;;;10521230;28;20036;-23
2023/05/22 11:10:54;;;;;;;16.45;5.65;;;21.80;80.90;;;;;;10533075;28;20043;-24
2023/05/22 11:15:57;;;;;;;18.52;7.65;;;22.50;77.20;;;;;;10527859;28;20048;-23
2023/05/22 11:21:00;;;;;;;20.55;7.25;;;21.80;79.20;;;;;;10525881;28;20446;-23
2023/05/22 11:26:17;;;;;;;31.25;8.77;;;20.70;91.20;;;;;;10522938;28;20048;-23
2023/05/22 11:31:21;;;;;;;18.60;8.15;;;21.30;85.50;;;;;;10526252;28;20500;-23
2023/05/22 11:36:27;;;;;;;19.25;7.65;;;21.60;86.20;;;;;;10526836;28;20635;-25
2023/05/22 11:41:33;;;;;;;23.00;8.80;;;22.10;80.70;;;;;;10544321;28;20058;-24
2023/05/22 11:46:35;;;;;;;17.67;8.82;;;21.20;86.90;;;;;;10533128;28;20409;-24
2023/05/22 11:51:39;;;;;;;;;;;22.10;80.80;;;;;;10527047;28;20101;-24
2023/05/22 11:56:41;;;;;;;14.00;5.72;;;22.80;74.40;;;;;;10537166;28;19932;-24
2023/05/22 12:01:43;;;;;;;;;;;21.20;90.10;;;;;;10524199;28;20044;-23
2023/05/22 12:06:47;;;;;;;19.02;6.15;;;23.00;75.70;;;;;;10531714;28;19926;-23
2023/05/22 12:11:49;;;;;;;17.65;6.47;;;23.20;73.80;;;;;;10528886;28;20060;-23
2023/05/22 12:16:52;;;;;;;11.77;4.88;;;22.50;78.20;;;;;;10537612;28;20496;-23
2023/05/22 12:21:55;;;;;;;21.17;8.25;;;22.80;79.20;;;;;;10536173;28;20044;-22
2023/05/22 12:26:57;;;;;;;10.40;4.13;;;22.10;84.10;;;;;;10545712;28;20105;-23
2023/05/22 12:32:02;;;;;;;16.67;6.88;;;23.40;76.50;;;;;;10533792;28;20043;-24
2023/05/22 12:37:18;;;;;;;20.75;8.07;;;23.20;75.30;;;;;;10529651;28;20051;-25
2023/05/22 12:42:20;;;;;;;18.23;7.68;;;22.00;87.30;;;;;;10532000;28;20115;-25
2023/05/22 12:47:22;;;;;;;;;;;23.40;73.30;;;;;;10534377;28;20442;-23
2023/05/22 12:52:25;;;;;;;8.10;4.60;;;22.80;80.60;;;;;;10531926;28;20017;-23
2023/05/22 12:57:27;;;;;;;14.70;6.10;;;25.00;66.70;;;;;;10539154;28;20488;-23
2023/05/22 13:02:29;;;;;;;13.77;5.60;;;24.00;70.90;;;;;;10533520;28;20570;-24
2023/05/22 13:07:33;;;;;;;18.48;6.10;;;23.80;74.30;;;;;;10529788;28;20040;-23
2023/05/22 13:12:35;;;;;;;11.45;4.95;;;24.90;67.80;;;;;;10534076;28;20087;-23
2023/05/22 13:17:37;;;;;;;8.95;4.22;;;25.60;63.70;;;;;;10532872;28;20141;-31
2023/05/22 13:22:41;;;;;;;13.23;4.65;;;25.30;65.10;;;;;;10530389;28;20135;-25
2023/05/22 13:27:45;;;;;;;8.73;4.68;;;26.00;62.10;;;;;;10530119;28;20061;-25
2023/05/22 13:32:47;;;;;;;6.32;3.80;;;26.10;61.80;;;;;;10533179;28;20933;-25
2023/05/22 13:37:51;;;;;;;6.82;4.38;;;26.40;60.90;;;;;;10540124;28;20150;-25
2023/05/22 13:42:53;;;;;;;7.72;4.05;;;26.10;62.10;;;;;;10523374;28;20127;-25
2023/05/22 13:47:55;;;;;;;9.70;4.85;;;26.70;60.60;;;;;;10523136;28;20468;-25
2023/05/22 13:52:58;;;;;;;8.02;4.38;;;25.70;62.90;;;;;;10529949;28;20119;-25
2023/05/22 13:58:00;;;;;;;11.52;5.00;;;26.50;61.30;;;;;;10523795;28;20456;-24
2023/05/22 14:03:02;;;;;;;5.05;3.20;;;26.70;60.20;;;;;;10530301;28;20051;-24
2023/05/22 14:08:05;;;;;;;7.35;3.65;;;26.60;60.60;;;;;;10537476;28;20377;-24
2023/05/22 14:13:07;;;;;;;11.18;3.58;;;27.00;59.40;;;;;;10534204;28;20059;-24
2023/05/22 14:18:10;;;;;;;10.93;4.40;;;27.10;60.50;;;;;;10517439;28;20044;-24
2023/05/22 14:23:13;;;;;;;6.57;3.47;;;26.60;60.70;;;;;;10530042;28;20471;-25
2023/05/22 14:28:15;;;;;;;6.80;4.30;;;27.20;60.30;;;;;;10530068;28;20075;-24
2023/05/22 14:33:17;;;;;;;10.57;4.50;;;27.30;59.60;;;;;;10524496;28;20415;-25
2023/05/22 14:38:20;;;;;;;6.55;3.22;;;27.20;58.70;;;;;;10523356;28;20048;-24
2023/05/22 14:43:22;;;;;;;6.20;3.33;;;27.40;59.20;;;;;;10530152;28;20222;-24
2023/05/22 14:48:24;;;;;;;6.05;3.25;;;27.30;61.40;;;;;;10524873;28;20067;-24
2023/05/22 14:53:27;;;;;;;8.15;4.00;;;27.20;61.20;;;;;;10536484;28;20143;-22
2023/05/22 14:58:30;;;;;;;9.63;5.00;;;27.90;59.30;;;;;;10529163;28;20123;-25
2023/05/22 15:03:31;;;;;;;5.80;3.92;;;27.50;58.60;;;;;;10527583;28;20542;-24
2023/05/22 15:08:36;;;;;;;4.32;3.15;;;27.90;59.50;;;;;;10526916;28;20382;-24
2023/05/22 15:13:37;;;;;;;10.45;4.18;;;28.40;59.70;;;;;;10521762;28;20064;-24
2023/05/22 15:18:39;;;;;;;5.68;3.45;;;28.50;58.10;;;;;;10536080;28;20519;-25
2023/05/22 15:23:42;;;;;;;6.50;3.47;;;28.40;58.90;;;;;;10525450;28;20482;-24
2023/05/22 15:28:44;;;;;;;5.88;3.40;;;28.80;58.10;;;;;;10517537;28;20480;-23
2023/05/22 15:33:46;;;;;;;4.10;2.80;;;28.40;57.90;;;;;;10523708;28;20050;-24
2023/05/22 15:38:49;;;;;;;6.00;3.15;;;28.70;57.20;;;;;;10525306;28;20059;-24
2023/05/22 15:43:51;;;;;;;5.60;3.33;;;28.70;56.70;;;;;;10524171;28;20064;-24
2023/05/22 15:48:54;;;;;;;7.45;3.10;;;28.90;57.00;;;;;;10519210;28;20048;-26
2023/05/22 15:53:58;;;;;;;4.55;3.20;;;29.30;57.30;;;;;;10525526;28;20112;-24
2023/05/22 15:58:59;;;;;;;7.97;3.33;;;29.60;57.00;;;;;;10520768;28;20076;-24
2023/05/22 16:04:01;;;;;;;7.05;3.30;;;29.60;56.60;;;;;;10522593;28;20072;-24
2023/05/22 16:09:05;;;;;;;4.15;2.70;;;29.60;58.60;;;;;;10531494;28;20567;-23
2023/05/22 16:14:07;;;;;;;8.43;3.60;;;29.90;57.10;;;;;;10520324;28;20066;-23
2023/05/22 16:19:10;;;;;;;7.93;3.72;;;29.60;56.10;;;;;;10540443;28;20671;-23
2023/05/22 16:24:13;;;;;;;6.38;3.08;;;29.70;56.90;;;;;;10537429;28;20055;-24
2023/05/22 16:29:15;;;;;;;6.70;3.00;;;29.60;58.00;;;;;;10528667;28;20044;-25
2023/05/22 16:34:17;;;;;;;6.80;3.33;;;28.80;59.00;;;;;;10517863;28;20067;-24
2023/05/22 16:39:20;;;;;;;6.40;3.22;;;29.50;54.50;;;;;;10523312;28;20473;-27
2023/05/22 16:44:22;;;;;;;9.60;3.08;;;30.00;62.80;;;;;;10527535;28;20138;-24
2023/05/22 16:49:24;;;;;;;9.05;3.80;;;29.30;63.20;;;;;;10523112;28;20066;-24
2023/05/22 16:54:27;;;;;;;12.27;4.70;;;29.50;63.60;;;;;;10526406;28;20075;-23
2023/05/22 16:59:29;;;;;;;6.63;3.45;;;29.30;62.70;;;;;;10527778;28;20391;-24
2023/05/22 17:04:31;;;;;;;7.70;3.67;;;28.40;67.70;;;;;;10531173;28;20093;-26
2023/05/22 17:09:34;;;;;;;17.33;5.65;;;29.70;63.10;;;;;;10525428;28;20066;-24
2023/05/22 17:14:36;;;;;;;6.57;4.22;;;29.30;65.40;;;;;;10526043;28;20150;-24
2023/05/22 17:19:38;;;;;;;6.35;4.38;;;29.90;64.50;;;;;;10533895;28;20398;-24
2023/05/22 17:24:41;;;;;;;11.25;5.00;;;29.90;64.80;;;;;;10515285;28;20152;-24
2023/05/22 17:29:43;;;;;;;8.88;4.80;;;29.60;59.40;;;;;;10525870;28;20047;-25
2023/05/22 17:34:45;;;;;;;6.20;4.88;;;29.70;61.80;;;;;;10525293;28;20139;-24
2023/05/22 17:39:48;;;;;;;8.35;5.05;;;30.40;65.40;;;;;;10530400;28;20675;-25
2023/05/22 17:44:50;;;;;;;16.25;7.15;;;30.30;64.00;;;;;;10536034;28;20048;-24
2023/05/22 17:49:52;;;;;;;16.30;6.03;;;29.20;73.50;;;;;;10518451;28;20055;-23
2023/05/22 17:54:55;;;;;;;14.95;5.75;;;26.80;70.10;;;;;;10525106;28;20058;-24
2023/05/22 17:59:57;;;;;;;11.32;5.13;;;27.60;82.40;;;;;;10525927;28;20048;-24
2023/05/22 18:04:59;;;;;;;12.18;5.15;;;28.70;72.80;;;;;;10526712;28;20138;-24
2023/05/22 18:10:02;;;;;;;10.32;4.90;;;27.80;76.50;;;;;;10520032;28;20105;-23
2023/05/22 18:15:07;;;;;;;13.23;4.70;;;29.20;73.20;;;;;;10514967;28;20139;-23
2023/05/22 18:20:11;;;;;;;13.32;6.03;;;29.30;64.90;;;;;;10528544;28;20060;-24
2023/05/22 18:25:14;;;;;;;11.18;4.70;;;28.20;58.90;;;;;;10514674;28;20048;-23
2023/05/22 18:30:16;;;;;;;18.55;5.35;;;27.30;76.00;;;;;;10530601;28;20048;-22
2023/05/22 18:35:18;;;;;;;23.33;7.32;;;25.20;81.30;;;;;;10525931;28;20101;-24
2023/05/22 18:40:21;;;;;;;13.85;5.38;;;25.00;77.20;;;;;;10517253;28;20162;-23
2023/05/22 18:45:23;;;;;;;11.35;4.68;;;25.50;80.00;;;;;;10533406;28;20514;-24
2023/05/22 18:50:26;;;;;;;11.68;5.35;;;27.00;67.80;;;;;;10520653;28;20094;-24
2023/05/22 18:55:29;;;;;;;10.93;4.20;;;27.30;65.90;;;;;;10517496;28;20399;-24
2023/05/22 19:00:30;;;;;;;11.82;4.20;;;26.60;72.00;;;;;;10516673;28;20071;-24
2023/05/22 19:05:33;;;;;;;14.63;5.00;;;26.70;70.10;;;;;;10518230;28;20040;-24
2023/05/22 19:10:37;;;;;;;14.07;5.47;;;25.10;74.30;;;;;;10522579;28;20408;-25
2023/05/22 19:15:39;;;;;;;20.05;5.10;;;26.30;69.50;;;;;;10523361;28;20044;-24
2023/05/22 19:20:40;;;;;;;14.10;4.85;;;24.60;82.40;;;;;;10530345;28;20050;-22
2023/05/22 19:25:43;;;;;;;24.88;6.72;;;25.90;63.80;;;;;;10517867;28;20677;-24
2023/05/22 19:30:45;;;;;;;18.00;5.03;;;22.80;70.60;;;;;;10514469;28;20121;-25
2023/05/22 19:35:47;;;;;;;15.07;4.40;;;24.10;75.30;;;;;;10519883;28;20143;-25
2023/05/22 19:40:50;;;;;;;18.00;4.25;;;26.80;66.70;;;;;;10522832;28;20465;-24
2023/05/22 19:45:52;;;;;;;17.63;4.88;;;27.10;63.80;;;;;;10521122;28;20136;-25
2023/05/22 19:50:54;;;;;;;21.83;5.43;;;25.80;69.20;;;;;;10525664;28;20084;-24
2023/05/22 19:55:57;;;;;;;23.02;7.90;;;26.90;63.50;;;;;;10529524;28;20044;-24
2023/05/22 20:00:59;;;;;;;9.63;4.20;;;25.20;66.90;;;;;;10527728;28;20072;-23
2023/05/22 20:06:01;;;;;;;18.05;5.80;;;27.40;61.20;;;;;;10528692;28;20036;-23
2023/05/22 20:11:04;;;;;;;25.80;8.18;;;26.10;65.70;;;;;;10523024;28;20075;-23
2023/05/22 20:16:10;;;;;;;13.30;4.88;;;24.40;62.70;;;;;;10526604;28;20068;-24
2023/05/22 20:21:12;;;;;;;9.35;4.20;;;25.90;70.10;;;;;;10524501;28;20048;-23
2023/05/22 20:26:15;;;;;;;17.95;5.28;;;26.80;64.80;;;;;;10536425;28;20063;-24
2023/05/22 20:31:17;;;;;;;17.17;6.32;;;24.70;72.60;;;;;;10528438;28;20047;-24
2023/05/22 20:36:19;;;;;;;20.83;7.22;;;25.90;63.00;;;;;;10522142;28;20098;-24
2023/05/22 20:41:22;;;;;;;12.82;4.38;;;25.60;63.60;;;;;;10526224;28;20063;-24
2023/05/22 20:46:24;;;;;;;14.90;5.30;;;26.40;67.10;;;;;;10541459;28;20045;-24
2023/05/22 20:51:31;;;;;;;11.50;3.90;;;25.50;70.90;;;;;;10535248;28;20074;-25
2023/05/22 20:56:34;;;;;;;8.95;3.63;;;25.20;74.20;;;;;;10531227;28;20076;-22
2023/05/22 21:01:36;;;;;;;8.30;4.38;;;25.10;69.40;;;;;;10535034;28;20070;-24
2023/05/22 21:06:37;;;;;;;9.15;3.88;;;25.40;71.30;;;;;;10516130;28;20418;-24
2023/05/22 21:11:41;;;;;;;10.48;3.92;;;26.20;67.00;;;;;;10534987;28;20519;-24
2023/05/22 21:16:42;;;;;;;9.48;4.10;;;24.60;74.20;;;;;;10520803;28;20094;-24
2023/05/22 21:21:44;;;;;;;13.20;4.90;;;24.60;72.30;;;;;;10528870;28;20048;-25
2023/05/22 21:26:47;;;;;;;10.45;4.03;;;25.80;68.50;;;;;;10527111;28;20079;-24
2023/05/22 21:31:49;;;;;;;7.50;4.22;;;25.70;69.00;;;;;;10532756;28;20126;-23
2023/05/22 21:36:51;;;;;;;9.00;4.75;;;26.30;65.40;;;;;;10528926;28;20817;-24
2023/05/22 21:41:54;;;;;;;13.35;5.47;;;26.00;65.40;;;;;;10521000;28;20044;-24
2023/05/22 21:46:56;;;;;;;9.73;5.60;;;25.40;68.90;;;;;;10500870;28;20036;-24
2023/05/22 21:51:58;;;;;;;9.20;5.13;;;23.80;76.10;;;;;;10517728;28;20403;-24
2023/05/22 21:57:01;;;;;;;11.10;6.82;;;23.10;74.00;;;;;;10527555;28;20143;-24
2023/05/22 22:02:03;;;;;;;11.55;6.32;;;24.60;74.70;;;;;;10511713;28;20101;-26
2023/05/22 22:07:05;;;;;;;12.32;7.20;;;23.90;67.80;;;;;;10518104;28;20117;-24
2023/05/22 22:12:08;;;;;;;16.48;8.23;;;25.70;67.20;;;;;;10517235;28;20147;-24
2023/05/22 22:17:10;;;;;;;13.73;7.65;;;25.90;65.00;;;;;;10517389;28;20056;-24
2023/05/22 22:22:12;;;;;;;14.80;8.52;;;25.10;68.60;;;;;;10527681;28;20075;-24
2023/05/22 22:27:15;;;;;;;14.65;8.20;;;24.80;71.00;;;;;;10533414;28;20040;-25
2023/05/22 22:32:17;;;;;;;15.10;7.97;;;24.60;70.80;;;;;;10526217;28;20044;-23
2023/05/22 22:37:19;;;;;;;17.25;8.57;;;23.40;76.80;;;;;;10525587;28;20146;-24
2023/05/22 22:42:23;;;;;;;16.52;6.85;;;24.70;71.30;;;;;;10532110;28;20042;-24
2023/05/22 22:47:26;;;;;;;17.10;10.18;;;22.40;76.60;;;;;;10519048;28;20045;-24
2023/05/22 22:52:28;;;;;;;16.15;9.20;;;24.00;75.60;;;;;;10518842;28;20040;-24
2023/05/22 22:57:31;;;;;;;20.42;8.13;;;23.00;82.90;;;;;;10527749;28;20048;-25
2023/05/22 23:02:33;;;;;;;19.33;7.63;;;22.80;79.60;;;;;;10516205;28;20080;-24
2023/05/22 23:07:35;;;;;;;;;;;23.10;75.90;;;;;;10533630;28;20039;-25
2023/05/22 23:12:38;;;;;;;17.88;9.13;;;23.20;79.20;;;;;;10524048;28;19926;-24
2023/05/22 23:17:40;;;;;;;25.30;6.68;;;24.80;68.80;;;;;;10522813;28;20147;-24
2023/05/22 23:22:42;;;;;;;24.17;7.70;;;20.70;81.60;;;;;;10528264;28;20052;-24
2023/05/22 23:27:45;;;;;;;14.10;8.30;;;20.70;91.20;;;;;;10519410;28;20036;-24
2023/05/22 23:32:47;;;;;;;19.52;8.90;;;23.60;69.60;;;;;;10538561;28;20088;-26
2023/05/22 23:37:49;;;;;;;19.55;8.40;;;22.90;71.60;;;;;;10533064;28;20552;-24
2023/05/22 23:42:52;;;;;;;14.55;7.78;;;21.80;77.60;;;;;;10531426;28;20044;-24
2023/05/22 23:47:54;;;;;;;20.20;7.03;;;22.10;86.90;;;;;;10543393;28;20040;-25
2023/05/22 23:52:56;;;;;;;23.00;7.40;;;22.40;72.00;;;;;;10533335;28;20105;-24
2023/05/22 23:57:59;;;;;;;16.73;7.57;;;21.00;85.10;;;;;;10532946;28;20052;-24
